sensor_id;sensor_type;location;lat;lon;timestamp;pressure;altitude;pressure_sealevel;temperature;humidity
5913;BME280;2982;42.684;23.356;2023-07-31T00:00:56;94580.72;;;21.00;100.00
5913;BME280;2982;42.684;23.356;2023-07-31T00:03:22;94580.91;;;20.98;100.00
5913;BME280;2982;42.684;23.356;2023-07-31T00:05:47;94577.16;;;20.93;100.00
5913;BME280;2982;42.684;23.356;2023-07-31T00:08:12;94580.41;;;20.95;100.00
5913;BME280;2982;42.684;23.356;2023-07-31T00:10:37;94578.91;;;20.92;100.00
5913;BME280;2982;42.684;23.356;2023-07-31T00:13:03;94584.78;;;21.02;100.00
5913;BME280;2982;42.684;23.356;2023-07-31T00:15:28;94582.34;;;21.01;100.00
5913;BME280;2982;42.684;23.356;2023-07-31T00:17:53;94558.03;;;20.86;100.00
5913;BME280;2982;42.684;23.356;2023-07-31T00:20:18;94575.25;;;20.95;100.00
5913;BME280;2982;42.684;23.356;2023-07-31T00:22:44;94579.94;;;20.99;100.00
5913;BME280;2982;42.684;23.356;2023-07-31T00:25:09;94587.38;;;21.02;100.00
5913;BME280;2982;42.684;23.356;2023-07-31T00:27:34;94577.19;;;21.01;100.00
5913;BME280;2982;42.684;23.356;2023-07-31T00:30:00;94572.78;;;20.93;100.00
5913;BME280;2982;42.684;23.356;2023-07-31T00:32:25;94565.03;;;20.93;100.00
5913;BME280;2982;42.684;23.356;2023-07-31T00:34:50;94554.59;;;20.77;100.00
5913;BME280;2982;42.684;23.356;2023-07-31T00:37:15;94541.50;;;20.71;100.00
5913;BME280;2982;42.684;23.356;2023-07-31T00:39:41;94541.50;;;20.71;100.00
5913;BME280;2982;42.684;23.356;2023-07-31T00:42:07;94531.47;;;20.67;100.00
5913;BME280;2982;42.684;23.356;2023-07-31T00:44:32;94534.81;;;20.60;100.00
5913;BME280;2982;42.684;23.356;2023-07-31T00:46:58;94538.00;;;20.54;100.00
5913;BME280;2982;42.684;23.356;2023-07-31T00:49:23;94540.88;;;20.51;100.00
5913;BME280;2982;42.684;23.356;2023-07-31T00:51:49;94537.56;;;20.41;100.00
5913;BME280;2982;42.684;23.356;2023-07-31T00:54:14;94546.44;;;20.38;100.00
5913;BME280;2982;42.684;23.356;2023-07-31T00:56:40;94550.34;;;20.42;100.00
5913;BME280;2982;42.684;23.356;2023-07-31T00:59:06;94547.91;;;20.41;100.00
5913;BME280;2982;42.684;23.356;2023-07-31T01:01:32;94532.09;;;20.26;100.00
5913;BME280;2982;42.684;23.356;2023-07-31T01:03:57;94531.81;;;20.29;100.00
5913;BME280;2982;42.684;23.356;2023-07-31T01:06:56;94527.75;;;20.27;100.00
5913;BME280;2982;42.684;23.356;2023-07-31T01:09:37;94532.84;;;20.18;100.00
5913;BME280;2982;42.684;23.356;2023-07-31T01:12:06;94528.22;;;20.22;100.00
5913;BME280;2982;42.684;23.356;2023-07-31T01:14:32;94525.72;;;20.12;100.00
5913;BME280;2982;42.684;23.356;2023-07-31T01:16:57;94530.22;;;20.10;100.00
5913;BME280;2982;42.684;23.356;2023-07-31T01:19:24;94519.91;;;20.10;100.00
5913;BME280;2982;42.684;23.356;2023-07-31T01:24:54;94515.84;;;20.08;100.00
5913;BME280;2982;42.684;23.356;2023-07-31T01:27:30;94508.63;;;19.94;100.00
5913;BME280;2982;42.684;23.356;2023-07-31T01:32:55;94508.41;;;19.87;100.00
5913;BME280;2982;42.684;23.356;2023-07-31T01:35:22;94503.25;;;19.87;100.00
5913;BME280;2982;42.684;23.356;2023-07-31T01:37:47;94502.28;;;19.88;100.00
5913;BME280;2982;42.684;23.356;2023-07-31T01:40:12;94506.56;;;19.79;100.00
5913;BME280;2982;42.684;23.356;2023-07-31T01:42:38;94508.84;;;19.83;100.00
5913;BME280;2982;42.684;23.356;2023-07-31T01:45:03;94505.38;;;19.74;100.00
5913;BME280;2982;42.684;23.356;2023-07-31T01:47:29;94501.19;;;19.73;100.00
5913;BME280;2982;42.684;23.356;2023-07-31T01:49:54;94433.00;;;19.22;100.00
5913;BME280;2982;42.684;23.356;2023-07-31T01:52:19;94505.03;;;19.69;100.00
5913;BME280;2982;42.684;23.356;2023-07-31T01:54:44;94496.47;;;19.68;100.00
5913;BME280;2982;42.684;23.356;2023-07-31T01:57:10;94510.19;;;19.69;100.00
5913;BME280;2982;42.684;23.356;2023-07-31T01:59:35;94516.56;;;19.65;100.00
5913;BME280;2982;42.684;23.356;2023-07-31T02:02:00;94513.31;;;19.63;100.00
5913;BME280;2982;42.684;23.356;2023-07-31T02:04:26;94496.16;;;19.54;100.00
5913;BME280;2982;42.684;23.356;2023-07-31T02:06:52;94516.16;;;19.60;100.00
5913;BME280;2982;42.684;23.356;2023-07-31T02:09:18;94507.78;;;19.58;100.00
5913;BME280;2982;42.684;23.356;2023-07-31T02:11:43;94512.44;;;19.54;100.00
5913;BME280;2982;42.684;23.356;2023-07-31T02:14:08;94516.47;;;19.57;100.00
5913;BME280;2982;42.684;23.356;2023-07-31T02:16:34;94519.34;;;19.54;100.00
5913;BME280;2982;42.684;23.356;2023-07-31T02:18:59;94523.38;;;19.56;100.00
5913;BME280;2982;42.684;23.356;2023-07-31T02:21:24;94523.13;;;19.59;100.00
5913;BME280;2982;42.684;23.356;2023-07-31T02:23:49;94526.66;;;19.58;100.00
5913;BME280;2982;42.684;23.356;2023-07-31T02:26:15;94526.66;;;19.58;100.00
5913;BME280;2982;42.684;23.356;2023-07-31T02:28:40;94524.19;;;19.57;100.00
5913;BME280;2982;42.684;23.356;2023-07-31T02:31:05;94509.69;;;19.56;100.00
5913;BME280;2982;42.684;23.356;2023-07-31T02:33:30;94519.94;;;19.65;100.00
5913;BME280;2982;42.684;23.356;2023-07-31T02:35:56;94509.94;;;19.62;100.00
5913;BME280;2982;42.684;23.356;2023-07-31T02:38:21;94520.19;;;19.72;100.00
5913;BME280;2982;42.684;23.356;2023-07-31T02:40:47;94523.41;;;19.74;100.00
5913;BME280;2982;42.684;23.356;2023-07-31T02:43:12;94506.47;;;19.71;100.00
5913;BME280;2982;42.684;23.356;2023-07-31T02:45:37;94512.53;;;19.80;100.00
5913;BME280;2982;42.684;23.356;2023-07-31T02:48:02;94524.16;;;19.84;100.00
5913;BME280;2982;42.684;23.356;2023-07-31T02:50:28;94522.41;;;19.85;100.00
5913;BME280;2982;42.684;23.356;2023-07-31T02:52:53;94529.19;;;19.86;100.00
5913;BME280;2982;42.684;23.356;2023-07-31T02:55:18;94527.25;;;19.88;100.00
5913;BME280;2982;42.684;23.356;2023-07-31T02:57:44;94534.13;;;19.97;100.00
5913;BME280;2982;42.684;23.356;2023-07-31T03:00:09;94538.97;;;20.00;100.00
5913;BME280;2982;42.684;23.356;2023-07-31T03:02:34;94546.91;;;20.06;100.00
5913;BME280;2982;42.684;23.356;2023-07-31T03:05:00;94538.16;;;20.17;100.00
5913;BME280;2982;42.684;23.356;2023-07-31T03:07:25;94543.81;;;20.20;100.00
5913;BME280;2982;42.684;23.356;2023-07-31T03:09:50;94554.50;;;20.26;100.00
5913;BME280;2982;42.684;23.356;2023-07-31T03:12:16;94542.94;;;20.30;100.00
5913;BME280;2982;42.684;23.356;2023-07-31T03:14:41;94559.63;;;20.35;100.00
5913;BME280;2982;42.684;23.356;2023-07-31T03:17:07;94558.56;;;20.28;100.00
5913;BME280;2982;42.684;23.356;2023-07-31T03:19:32;94565.31;;;20.39;100.00
5913;BME280;2982;42.684;23.356;2023-07-31T03:21:59;94560.16;;;20.39;100.00
5913;BME280;2982;42.684;23.356;2023-07-31T03:24:25;94563.00;;;20.36;100.00
5913;BME280;2982;42.684;23.356;2023-07-31T03:26:50;94562.06;;;20.37;100.00
5913;BME280;2982;42.684;23.356;2023-07-31T03:29:15;94566.63;;;20.43;100.00
5913;BME280;2982;42.684;23.356;2023-07-31T03:31:41;94566.63;;;20.43;100.00
5913;BME280;2982;42.684;23.356;2023-07-31T03:34:06;94559.41;;;20.46;100.00
5913;BME280;2982;42.684;23.356;2023-07-31T03:36:31;94535.63;;;20.25;100.00
5913;BME280;2982;42.684;23.356;2023-07-31T03:38:56;94566.00;;;20.49;100.00
5913;BME280;2982;42.684;23.356;2023-07-31T03:41:22;94550.63;;;20.39;100.00
5913;BME280;2982;42.684;23.356;2023-07-31T03:43:50;94571.97;;;20.49;100.00
5913;BME280;2982;42.684;23.356;2023-07-31T03:46:15;94573.16;;;20.55;100.00
5913;BME280;2982;42.684;23.356;2023-07-31T03:48:40;94572.34;;;20.54;100.00
5913;BME280;2982;42.684;23.356;2023-07-31T03:51:06;94544.44;;;20.32;100.00
5913;BME280;2982;42.684;23.356;2023-07-31T03:53:31;94576.69;;;20.54;100.00
5913;BME280;2982;42.684;23.356;2023-07-31T03:55:56;94580.59;;;20.58;100.00
5913;BME280;2982;42.684;23.356;2023-07-31T03:58:21;94580.44;;;20.59;100.00
5913;BME280;2982;42.684;23.356;2023-07-31T04:00:47;94569.94;;;20.53;100.00
5913;BME280;2982;42.684;23.356;2023-07-31T04:03:12;94586.13;;;20.63;100.00
5913;BME280;2982;42.684;23.356;2023-07-31T04:05:38;94586.28;;;20.61;100.00
5913;BME280;2982;42.684;23.356;2023-07-31T04:08:03;94584.34;;;20.63;100.00
5913;BME280;2982;42.684;23.356;2023-07-31T04:10:29;94588.78;;;20.71;100.00
5913;BME280;2982;42.684;23.356;2023-07-31T04:12:54;94596.22;;;20.74;100.00
5913;BME280;2982;42.684;23.356;2023-07-31T04:15:19;94602.50;;;20.72;100.00
5913;BME280;2982;42.684;23.356;2023-07-31T04:17:44;94596.53;;;20.71;100.00
5913;BME280;2982;42.684;23.356;2023-07-31T04:20:10;94605.28;;;20.78;100.00
5913;BME280;2982;42.684;23.356;2023-07-31T04:22:35;94608.81;;;20.77;100.00
5913;BME280;2982;42.684;23.356;2023-07-31T04:25:00;94592.59;;;20.67;100.00
5913;BME280;2982;42.684;23.356;2023-07-31T04:27:26;94602.69;;;20.78;100.00
5913;BME280;2982;42.684;23.356;2023-07-31T04:29:51;94599.28;;;20.78;100.00
5913;BME280;2982;42.684;23.356;2023-07-31T04:32:16;94584.06;;;20.67;100.00
5913;BME280;2982;42.684;23.356;2023-07-31T04:34:42;94607.03;;;20.78;100.00
5913;BME280;2982;42.684;23.356;2023-07-31T04:37:07;94612.72;;;20.81;100.00
5913;BME280;2982;42.684;23.356;2023-07-31T04:39:33;94605.31;;;20.86;100.00
5913;BME280;2982;42.684;23.356;2023-07-31T04:41:58;94604.38;;;20.87;100.00
5913;BME280;2982;42.684;23.356;2023-07-31T04:44:23;94609.91;;;20.92;100.00
5913;BME280;2982;42.684;23.356;2023-07-31T04:46:49;94604.69;;;20.84;100.00
5913;BME280;2982;42.684;23.356;2023-07-31T04:49:14;94602.69;;;20.78;100.00
5913;BME280;2982;42.684;23.356;2023-07-31T04:51:39;94603.09;;;20.91;100.00
5913;BME280;2982;42.684;23.356;2023-07-31T04:54:04;94606.63;;;21.08;100.00
5913;BME280;2982;42.684;23.356;2023-07-31T04:56:30;94591.44;;;21.31;100.00
5913;BME280;2982;42.684;23.356;2023-07-31T04:58:55;94615.66;;;21.64;100.00
5913;BME280;2982;42.684;23.356;2023-07-31T05:01:20;94601.84;;;21.89;100.00
5913;BME280;2982;42.684;23.356;2023-07-31T05:03:45;94623.56;;;22.70;100.00
5913;BME280;2982;42.684;23.356;2023-07-31T05:06:11;94604.91;;;22.91;100.00
5913;BME280;2982;42.684;23.356;2023-07-31T05:08:36;94591.44;;;23.28;100.00
5913;BME280;2982;42.684;23.356;2023-07-31T05:11:02;94607.00;;;23.75;100.00
5913;BME280;2982;42.684;23.356;2023-07-31T05:13:27;94608.25;;;24.26;100.00
5913;BME280;2982;42.684;23.356;2023-07-31T05:15:52;94608.81;;;24.36;100.00
5913;BME280;2982;42.684;23.356;2023-07-31T05:18:17;94612.00;;;24.46;100.00
5913;BME280;2982;42.684;23.356;2023-07-31T05:20:43;94609.69;;;24.51;100.00
5913;BME280;2982;42.684;23.356;2023-07-31T05:23:08;94589.34;;;24.63;100.00
5913;BME280;2982;42.684;23.356;2023-07-31T05:25:33;94605.41;;;24.81;100.00
5913;BME280;2982;42.684;23.356;2023-07-31T05:27:59;94593.75;;;24.54;100.00
5913;BME280;2982;42.684;23.356;2023-07-31T05:30:24;94598.16;;;24.77;100.00
5913;BME280;2982;42.684;23.356;2023-07-31T05:32:49;94612.34;;;25.41;100.00
5913;BME280;2982;42.684;23.356;2023-07-31T05:35:14;94590.75;;;26.20;100.00
5913;BME280;2982;42.684;23.356;2023-07-31T05:37:40;94597.81;;;25.91;100.00
5913;BME280;2982;42.684;23.356;2023-07-31T05:40:06;94602.63;;;25.06;100.00
5913;BME280;2982;42.684;23.356;2023-07-31T05:42:31;94593.97;;;24.30;100.00
5913;BME280;2982;42.684;23.356;2023-07-31T05:44:56;94605.47;;;24.50;100.00
5913;BME280;2982;42.684;23.356;2023-07-31T05:47:21;94614.34;;;24.87;100.00
5913;BME280;2982;42.684;23.356;2023-07-31T05:49:48;94601.59;;;24.69;100.00
5913;BME280;2982;42.684;23.356;2023-07-31T05:52:13;94605.97;;;24.54;100.00
5913;BME280;2982;42.684;23.356;2023-07-31T05:54:39;94603.78;;;24.04;100.00
5913;BME280;2982;42.684;23.356;2023-07-31T05:57:04;94612.63;;;23.87;100.00
5913;BME280;2982;42.684;23.356;2023-07-31T05:59:30;94613.91;;;23.52;100.00
5913;BME280;2982;42.684;23.356;2023-07-31T06:01:55;94613.91;;;23.44;100.00
5913;BME280;2982;42.684;23.356;2023-07-31T06:04:20;94628.16;;;23.48;100.00
5913;BME280;2982;42.684;23.356;2023-07-31T06:06:45;94616.97;;;23.39;100.00
5913;BME280;2982;42.684;23.356;2023-07-31T06:09:11;94625.09;;;23.36;100.00
5913;BME280;2982;42.684;23.356;2023-07-31T06:11:36;94629.03;;;23.16;100.00
5913;BME280;2982;42.684;23.356;2023-07-31T06:14:01;94625.41;;;23.49;100.00
5913;BME280;2982;42.684;23.356;2023-07-31T06:16:26;94623.31;;;24.53;100.00
5913;BME280;2982;42.684;23.356;2023-07-31T06:18:52;94626.59;;;25.45;100.00
5913;BME280;2982;42.684;23.356;2023-07-31T06:21:17;94630.56;;;25.85;100.00
5913;BME280;2982;42.684;23.356;2023-07-31T06:23:42;94618.69;;;26.12;100.00
5913;BME280;2982;42.684;23.356;2023-07-31T06:26:07;94607.88;;;25.94;100.00
5913;BME280;2982;42.684;23.356;2023-07-31T06:28:33;94592.56;;;25.55;100.00
5913;BME280;2982;42.684;23.356;2023-07-31T06:30:58;94616.94;;;25.83;100.00
5913;BME280;2982;42.684;23.356;2023-07-31T06:33:24;94626.31;;;26.13;100.00
5913;BME280;2982;42.684;23.356;2023-07-31T06:35:49;94633.00;;;25.57;100.00
5913;BME280;2982;42.684;23.356;2023-07-31T06:38:14;94610.69;;;24.96;100.00
5913;BME280;2982;42.684;23.356;2023-07-31T06:40:40;94623.06;;;24.40;100.00
5913;BME280;2982;42.684;23.356;2023-07-31T06:43:05;94606.56;;;24.33;100.00
5913;BME280;2982;42.684;23.356;2023-07-31T06:45:31;94620.78;;;24.68;100.00
5913;BME280;2982;42.684;23.356;2023-07-31T06:47:56;94626.03;;;25.20;100.00
5913;BME280;2982;42.684;23.356;2023-07-31T06:50:21;94628.03;;;25.48;100.00
5913;BME280;2982;42.684;23.356;2023-07-31T06:52:47;94634.00;;;25.56;100.00
5913;BME280;2982;42.684;23.356;2023-07-31T06:55:19;94631.63;;;25.32;100.00
5913;BME280;2982;42.684;23.356;2023-07-31T06:57:46;94633.91;;;25.12;100.00
5913;BME280;2982;42.684;23.356;2023-07-31T07:00:12;94622.16;;;24.79;100.00
5913;BME280;2982;42.684;23.356;2023-07-31T07:02:37;94638.19;;;24.60;100.00
5913;BME280;2982;42.684;23.356;2023-07-31T07:05:03;94637.06;;;24.31;100.00
5913;BME280;2982;42.684;23.356;2023-07-31T07:07:28;94633.84;;;23.90;100.00
5913;BME280;2982;42.684;23.356;2023-07-31T07:09:53;94631.00;;;24.08;100.00
5913;BME280;2982;42.684;23.356;2023-07-31T07:12:19;94606.03;;;23.84;100.00
5913;BME280;2982;42.684;23.356;2023-07-31T07:14:44;94629.84;;;23.80;100.00
5913;BME280;2982;42.684;23.356;2023-07-31T07:17:09;94628.91;;;23.73;100.00
5913;BME280;2982;42.684;23.356;2023-07-31T07:19:34;94613.00;;;23.84;100.00
5913;BME280;2982;42.684;23.356;2023-07-31T07:22:00;94613.78;;;24.15;100.00
5913;BME280;2982;42.684;23.356;2023-07-31T07:24:25;94601.78;;;24.22;100.00
5913;BME280;2982;42.684;23.356;2023-07-31T07:26:50;94631.63;;;24.18;100.00
5913;BME280;2982;42.684;23.356;2023-07-31T07:29:16;94626.22;;;23.97;100.00
5913;BME280;2982;42.684;23.356;2023-07-31T07:31:41;94626.84;;;23.60;100.00
5913;BME280;2982;42.684;23.356;2023-07-31T07:34:06;94635.41;;;23.68;100.00
5913;BME280;2982;42.684;23.356;2023-07-31T07:36:31;94602.56;;;23.92;100.00
5913;BME280;2982;42.684;23.356;2023-07-31T07:38:57;94628.00;;;24.35;100.00
5913;BME280;2982;42.684;23.356;2023-07-31T07:41:22;94631.97;;;24.15;100.00
5913;BME280;2982;42.684;23.356;2023-07-31T07:43:47;94630.03;;;24.17;100.00
5913;BME280;2982;42.684;23.356;2023-07-31T07:46:12;94628.25;;;24.40;100.00
5913;BME280;2982;42.684;23.356;2023-07-31T07:48:38;94626.59;;;24.70;100.00
5913;BME280;2982;42.684;23.356;2023-07-31T07:51:03;94644.66;;;24.64;100.00
5913;BME280;2982;42.684;23.356;2023-07-31T07:53:28;94631.53;;;24.88;100.00
5913;BME280;2982;42.684;23.356;2023-07-31T07:55:53;94637.03;;;24.85;100.00
5913;BME280;2982;42.684;23.356;2023-07-31T07:58:19;94643.75;;;25.02;100.00
5913;BME280;2982;42.684;23.356;2023-07-31T08:00:51;94634.31;;;25.38;100.00
5913;BME280;2982;42.684;23.356;2023-07-31T08:03:16;94635.97;;;25.54;100.00
5913;BME280;2982;42.684;23.356;2023-07-31T08:05:42;94642.25;;;25.74;100.00
5913;BME280;2982;42.684;23.356;2023-07-31T08:08:07;94640.97;;;25.85;100.00
5913;BME280;2982;42.684;23.356;2023-07-31T08:10:33;94637.50;;;25.78;100.00
5913;BME280;2982;42.684;23.356;2023-07-31T08:12:58;94642.81;;;25.70;100.00
5913;BME280;2982;42.684;23.356;2023-07-31T08:15:23;94645.03;;;25.58;100.00
5913;BME280;2982;42.684;23.356;2023-07-31T08:17:49;94647.75;;;25.27;100.00
5913;BME280;2982;42.684;23.356;2023-07-31T08:20:14;94653.38;;;25.16;100.00
5913;BME280;2982;42.684;23.356;2023-07-31T08:22:39;94647.28;;;25.09;100.00
5913;BME280;2982;42.684;23.356;2023-07-31T08:25:05;94634.72;;;25.13;100.00
5913;BME280;2982;42.684;23.356;2023-07-31T08:27:30;94627.84;;;25.34;100.00
5913;BME280;2982;42.684;23.356;2023-07-31T08:29:56;94640.03;;;25.57;100.00
5913;BME280;2982;42.684;23.356;2023-07-31T08:32:21;94634.00;;;25.71;100.00
5913;BME280;2982;42.684;23.356;2023-07-31T08:34:46;94634.44;;;25.60;100.00
5913;BME280;2982;42.684;23.356;2023-07-31T08:37:11;94638.41;;;25.56;100.00
5913;BME280;2982;42.684;23.356;2023-07-31T08:39:37;94632.34;;;25.99;100.00
5913;BME280;2982;42.684;23.356;2023-07-31T08:42:02;94621.94;;;25.99;100.00
5913;BME280;2982;42.684;23.356;2023-07-31T08:44:29;94625.88;;;26.24;100.00
5913;BME280;2982;42.684;23.356;2023-07-31T08:46:56;94627.75;;;26.52;100.00
5913;BME280;2982;42.684;23.356;2023-07-31T08:49:22;94598.44;;;26.43;100.00
5913;BME280;2982;42.684;23.356;2023-07-31T08:51:49;94630.75;;;27.12;100.00
5913;BME280;2982;42.684;23.356;2023-07-31T08:54:15;94611.91;;;26.68;100.00
5913;BME280;2982;42.684;23.356;2023-07-31T08:56:40;94638.22;;;26.73;100.00
5913;BME280;2982;42.684;23.356;2023-07-31T08:59:06;94635.59;;;27.15;99.93
5913;BME280;2982;42.684;23.356;2023-07-31T09:01:35;94628.69;;;27.29;97.94
5913;BME280;2982;42.684;23.356;2023-07-31T09:04:05;94632.78;;;27.17;98.17
5913;BME280;2982;42.684;23.356;2023-07-31T09:06:31;94621.88;;;27.07;99.64
5913;BME280;2982;42.684;23.356;2023-07-31T09:08:57;94621.63;;;27.51;97.98
5913;BME280;2982;42.684;23.356;2023-07-31T09:11:23;94631.19;;;26.95;100.00
5913;BME280;2982;42.684;23.356;2023-07-31T09:13:49;94622.00;;;26.99;100.00
5913;BME280;2982;42.684;23.356;2023-07-31T09:16:15;94614.59;;;26.60;100.00
5913;BME280;2982;42.684;23.356;2023-07-31T09:18:53;94617.56;;;27.21;100.00
5913;BME280;2982;42.684;23.356;2023-07-31T09:21:19;94614.03;;;27.35;98.60
5913;BME280;2982;42.684;23.356;2023-07-31T09:23:46;94610.06;;;27.67;97.71
5913;BME280;2982;42.684;23.356;2023-07-31T09:26:28;94602.81;;;27.62;96.06
5913;BME280;2982;42.684;23.356;2023-07-31T09:28:54;94613.25;;;27.62;96.37
5913;BME280;2982;42.684;23.356;2023-07-31T09:31:32;94592.78;;;27.03;98.74
5913;BME280;2982;42.684;23.356;2023-07-31T09:33:57;94608.75;;;27.22;100.00
5913;BME280;2982;42.684;23.356;2023-07-31T09:36:22;94613.41;;;27.54;97.79
5913;BME280;2982;42.684;23.356;2023-07-31T09:38:48;94603.16;;;27.93;95.27
5913;BME280;2982;42.684;23.356;2023-07-31T09:41:13;94589.75;;;28.03;94.84
5913;BME280;2982;42.684;23.356;2023-07-31T09:43:38;94603.97;;;28.48;92.39
5913;BME280;2982;42.684;23.356;2023-07-31T09:46:03;94594.75;;;27.98;94.12
5913;BME280;2982;42.684;23.356;2023-07-31T09:48:29;94597.38;;;27.57;96.58
5913;BME280;2982;42.684;23.356;2023-07-31T09:50:54;94597.63;;;27.41;97.26
5913;BME280;2982;42.684;23.356;2023-07-31T09:53:19;94597.53;;;27.96;96.35
5913;BME280;2982;42.684;23.356;2023-07-31T09:55:53;94590.69;;;28.36;92.06
5913;BME280;2982;42.684;23.356;2023-07-31T09:58:19;94584.88;;;28.61;92.29
5913;BME280;2982;42.684;23.356;2023-07-31T10:00:45;94598.00;;;28.74;89.32
5913;BME280;2982;42.684;23.356;2023-07-31T10:03:11;94583.44;;;28.32;89.47
5913;BME280;2982;42.684;23.356;2023-07-31T10:05:45;94514.41;;;27.46;91.99
5913;BME280;2982;42.684;23.356;2023-07-31T10:08:13;94582.13;;;28.08;90.61
5913;BME280;2982;42.684;23.356;2023-07-31T10:10:42;94584.59;;;28.16;90.34
5913;BME280;2982;42.684;23.356;2023-07-31T10:13:08;94563.94;;;27.74;91.37
5913;BME280;2982;42.684;23.356;2023-07-31T10:15:34;94589.25;;;27.80;92.52
5913;BME280;2982;42.684;23.356;2023-07-31T10:18:01;94590.69;;;27.48;92.87
5913;BME280;2982;42.684;23.356;2023-07-31T10:20:26;94589.03;;;27.12;92.87
5913;BME280;2982;42.684;23.356;2023-07-31T10:22:54;94591.22;;;27.09;93.38
5913;BME280;2982;42.684;23.356;2023-07-31T10:25:21;94585.81;;;27.10;93.29
5913;BME280;2982;42.684;23.356;2023-07-31T10:27:47;94574.50;;;27.59;92.22
5913;BME280;2982;42.684;23.356;2023-07-31T10:30:17;94583.94;;;27.60;90.65
5913;BME280;2982;42.684;23.356;2023-07-31T10:32:44;94545.63;;;27.33;92.12
5913;BME280;2982;42.684;23.356;2023-07-31T10:35:11;94542.16;;;27.53;90.97
5913;BME280;2982;42.684;23.356;2023-07-31T10:37:38;94569.75;;;28.23;88.90
5913;BME280;2982;42.684;23.356;2023-07-31T10:40:18;94570.66;;;28.89;85.17
5913;BME280;2982;42.684;23.356;2023-07-31T10:42:52;94578.09;;;29.25;80.72
5913;BME280;2982;42.684;23.356;2023-07-31T10:45:34;94570.03;;;29.20;81.76
5913;BME280;2982;42.684;23.356;2023-07-31T10:48:01;94571.41;;;29.49;82.34
5913;BME280;2982;42.684;23.356;2023-07-31T10:50:29;94559.34;;;29.22;79.97
5913;BME280;2982;42.684;23.356;2023-07-31T10:52:56;94568.84;;;29.10;80.76
5913;BME280;2982;42.684;23.356;2023-07-31T10:55:41;94561.59;;;29.38;79.99
5913;BME280;2982;42.684;23.356;2023-07-31T10:58:09;94560.16;;;29.42;78.99
5913;BME280;2982;42.684;23.356;2023-07-31T11:00:37;94563.13;;;29.72;77.39
5913;BME280;2982;42.684;23.356;2023-07-31T11:03:08;94557.09;;;29.58;77.21
5913;BME280;2982;42.684;23.356;2023-07-31T11:05:53;94561.22;;;28.95;78.44
5913;BME280;2982;42.684;23.356;2023-07-31T11:08:19;94548.28;;;28.48;82.56
5913;BME280;2982;42.684;23.356;2023-07-31T11:10:46;94555.94;;;28.62;81.25
5913;BME280;2982;42.684;23.356;2023-07-31T11:13:12;94544.06;;;28.66;82.70
5913;BME280;2982;42.684;23.356;2023-07-31T11:15:37;94535.25;;;29.00;78.23
5913;BME280;2982;42.684;23.356;2023-07-31T11:18:03;94538.88;;;29.06;76.87
5913;BME280;2982;42.684;23.356;2023-07-31T11:20:32;94541.84;;;29.42;76.34
5913;BME280;2982;42.684;23.356;2023-07-31T11:23:00;94558.94;;;29.51;75.70
5913;BME280;2982;42.684;23.356;2023-07-31T11:25:25;94551.94;;;29.32;74.53
5913;BME280;2982;42.684;23.356;2023-07-31T11:27:51;94538.47;;;29.09;75.80
5913;BME280;2982;42.684;23.356;2023-07-31T11:30:18;94540.91;;;28.91;76.94
5913;BME280;2982;42.684;23.356;2023-07-31T11:32:44;94545.13;;;28.92;75.64
5913;BME280;2982;42.684;23.356;2023-07-31T11:35:12;94540.69;;;28.85;77.48
5913;BME280;2982;42.684;23.356;2023-07-31T11:37:42;94546.91;;;28.98;75.14
5913;BME280;2982;42.684;23.356;2023-07-31T11:40:08;94541.91;;;28.83;77.15
5913;BME280;2982;42.684;23.356;2023-07-31T11:42:37;94539.06;;;29.04;75.42
5913;BME280;2982;42.684;23.356;2023-07-31T11:45:07;94538.66;;;29.07;74.47
5913;BME280;2982;42.684;23.356;2023-07-31T11:47:33;94544.31;;;28.84;78.26
5913;BME280;2982;42.684;23.356;2023-07-31T11:49:59;94541.66;;;28.58;80.92
5913;BME280;2982;42.684;23.356;2023-07-31T11:52:24;94538.88;;;28.60;79.73
5913;BME280;2982;42.684;23.356;2023-07-31T11:54:50;94544.88;;;28.67;80.05
5913;BME280;2982;42.684;23.356;2023-07-31T11:57:16;94532.44;;;28.62;79.21
5913;BME280;2982;42.684;23.356;2023-07-31T11:59:42;94535.28;;;28.74;78.09
5913;BME280;2982;42.684;23.356;2023-07-31T12:02:09;94537.50;;;28.77;78.70
5913;BME280;2982;42.684;23.356;2023-07-31T12:04:35;94540.28;;;29.02;78.06
5913;BME280;2982;42.684;23.356;2023-07-31T12:07:00;94534.44;;;29.13;78.43
5913;BME280;2982;42.684;23.356;2023-07-31T12:09:26;94508.03;;;29.27;76.16
5913;BME280;2982;42.684;23.356;2023-07-31T12:11:51;94524.31;;;29.49;77.48
5913;BME280;2982;42.684;23.356;2023-07-31T12:14:27;94521.69;;;30.00;76.08
5913;BME280;2982;42.684;23.356;2023-07-31T12:16:56;94514.03;;;30.05;73.63
5913;BME280;2982;42.684;23.356;2023-07-31T12:19:22;94519.72;;;29.96;72.97
5913;BME280;2982;42.684;23.356;2023-07-31T12:21:48;94509.84;;;30.29;71.32
5913;BME280;2982;42.684;23.356;2023-07-31T12:24:13;94503.38;;;29.49;75.24
5913;BME280;2982;42.684;23.356;2023-07-31T12:26:38;94511.88;;;29.12;76.48
5913;BME280;2982;42.684;23.356;2023-07-31T12:29:07;94510.13;;;28.99;77.71
5913;BME280;2982;42.684;23.356;2023-07-31T12:31:33;94512.13;;;28.91;76.96
5913;BME280;2982;42.684;23.356;2023-07-31T12:33:59;94519.78;;;28.72;78.05
5913;BME280;2982;42.684;23.356;2023-07-31T12:36:24;94511.94;;;28.46;77.82
5913;BME280;2982;42.684;23.356;2023-07-31T12:38:51;94503.66;;;28.23;79.40
5913;BME280;2982;42.684;23.356;2023-07-31T12:41:16;94446.13;;;27.96;78.90
5913;BME280;2982;42.684;23.356;2023-07-31T12:43:43;94484.78;;;28.21;79.44
5913;BME280;2982;42.684;23.356;2023-07-31T12:46:09;94512.09;;;28.18;79.63
5913;BME280;2982;42.684;23.356;2023-07-31T12:48:35;94503.44;;;28.24;78.12
5913;BME280;2982;42.684;23.356;2023-07-31T12:51:01;94485.50;;;28.01;79.76
5913;BME280;2982;42.684;23.356;2023-07-31T12:53:27;94490.19;;;28.19;79.51
5913;BME280;2982;42.684;23.356;2023-07-31T12:55:52;94493.81;;;28.38;79.93
5913;BME280;2982;42.684;23.356;2023-07-31T12:58:17;94483.38;;;28.31;79.93
5913;BME280;2982;42.684;23.356;2023-07-31T13:00:43;94493.81;;;28.51;79.37
5913;BME280;2982;42.684;23.356;2023-07-31T13:03:08;94488.00;;;28.75;78.75